Weihnachten

Liebe Flugschüler, Charterer und Kunden.

Wir bedanken uns für die gute Zusammenarbeit.

Im Namen der gesamten Firma wünsche ich Ihnen und Ihren Familien eine wunderschöne Weihnachtszeit und einen guten Rutsch.

Auf ein gutes neues Jahr !!!

Ihr Sabionski Christian

Flugwetter Augsburg

[source: ADDS]
METAR
EDMA 050020Z AUTO VRB01KT 5000 // SCT130/// SCT190/// OVC240/// M03/M04 Q0989 =
TAF EDMA 041700Z 0418/0503 VRB03KT CAVOK BECMG 0500/0503 26008KT
TAF
TAF EDMA 041700Z 0418/0503 VRB03KT CAVOK BECMG 0500/0503 26008KT =
Cookies erleichtern die Bereitstellung unserer Dienste. Mit der Nutzung unserer Dienste erklären Sie sich damit einverstanden, dass wir Cookies verwenden.
Weitere Informationen Ok